Time;durP1;ratioP1;P1;durP2;ratioP2;P2;SDS_P1;SDS_P2;PMS_P1;PMS_P2;Temp;Humidity;BMP_temperature;BMP_pressure;BME280_temperature;BME280_humidity;BME280_pressure;Samples;Min_cycle;Max_cycle;Signal;HPM_P1;HPM_P2
2022/07/05 00:02:13;;;;;;;6.32;1.77;;;;;;;18.40;100.00;98804.88;5112781;28;20038;-91
2022/07/05 00:04:51;;;;;;;7.22;1.67;;;;;;;18.38;100.00;98802.25;5114618;27;20043;-91
2022/07/05 00:07:28;;;;;;;8.57;1.75;;;;;;;18.69;100.00;98808.09;5100611;28;20034;-91
2022/07/05 00:10:01;;;;;;;7.35;1.60;;;;;;;18.37;100.00;98805.84;5094031;28;20020;-91
2022/07/05 00:12:42;;;;;;;7.93;1.65;;;;;;;18.05;100.00;98805.34;5099511;28;20027;-90
2022/07/05 00:15:18;;;;;;;6.53;1.52;;;;;;;18.09;100.00;98806.06;5099219;28;20031;-91
2022/07/05 00:18:03;;;;;;;7.55;1.83;;;;;;;18.42;100.00;98803.88;5107241;28;20043;-90
2022/07/05 00:20:33;;;;;;;6.90;1.75;;;;;;;18.71;100.00;98817.66;5101458;28;20088;-89
2022/07/05 00:23:05;;;;;;;8.25;1.75;;;;;;;18.99;100.00;98802.47;5095014;28;20039;-90
2022/07/05 00:25:44;;;;;;;6.70;1.75;;;;;;;18.11;100.00;98798.09;5096728;28;20131;-91
2022/07/05 00:28:16;;;;;;;8.32;1.85;;;;;;;18.09;100.00;98803.44;5097833;28;20032;-90
2022/07/05 00:30:54;;;;;;;7.32;1.52;;;;;;;18.37;100.00;98800.56;5102399;28;20035;-90
2022/07/05 00:33:35;;;;;;;6.63;1.60;;;;;;;17.85;100.00;98799.94;5102711;27;20031;-91
2022/07/05 00:36:28;;;;;;;9.70;1.90;;;;;;;18.43;100.00;98805.59;5096284;28;20532;-91
2022/07/05 00:39:07;;;;;;;8.23;1.83;;;;;;;18.20;100.00;98806.50;5099420;28;20065;-90
2022/07/05 00:41:41;;;;;;;8.25;1.85;;;;;;;18.13;100.00;98799.75;5097577;28;20120;-91
2022/07/05 00:44:19;;;;;;;10.10;1.90;;;;;;;18.05;100.00;98793.91;5104792;28;20382;-91
2022/07/05 00:47:08;;;;;;;7.85;1.90;;;;;;;18.33;100.00;98801.63;5099886;28;20050;-90
2022/07/05 00:49:38;;;;;;;9.55;1.92;;;;;;;17.95;100.00;98789.91;5098047;28;20032;-91
2022/07/05 00:52:16;;;;;;;8.80;1.80;;;;;;;17.91;100.00;98783.88;5100242;28;20035;-91
2022/07/05 00:54:49;;;;;;;9.15;1.80;;;;;;;17.51;100.00;98780.13;5101115;28;20048;-90
2022/07/05 00:57:19;;;;;;;9.70;1.95;;;;;;;17.48;100.00;98782.84;5102957;28;20130;-91
2022/07/05 00:59:58;;;;;;;6.97;1.85;;;;;;;18.00;100.00;98786.19;5100559;28;20040;-91
2022/07/05 01:02:33;;;;;;;7.63;1.60;;;;;;;17.56;100.00;98776.38;5099527;28;20110;-91
2022/07/05 01:05:08;;;;;;;11.70;1.95;;;;;;;17.55;100.00;98768.50;5118357;27;21012;-91
2022/07/05 01:07:44;;;;;;;5.47;1.60;;;;;;;17.71;100.00;98764.38;5100330;28;20040;-91
2022/07/05 01:10:31;;;;;;;9.10;1.80;;;;;;;17.32;100.00;98769.38;5102137;27;20078;-90
2022/07/05 01:13:01;;;;;;;7.70;2.08;;;;;;;17.41;100.00;98769.03;5099247;28;20047;-91
2022/07/05 01:15:54;;;;;;;12.45;2.10;;;;;;;17.52;100.00;98769.50;5103487;28;20040;-90
2022/07/05 01:18:35;;;;;;;10.35;1.98;;;;;;;17.20;100.00;98768.03;5097516;28;20067;-91
2022/07/05 01:21:05;;;;;;;6.78;1.88;;;;;;;17.76;100.00;98764.22;5097562;28;20083;-91
2022/07/05 01:23:35;;;;;;;8.13;1.80;;;;;;;17.08;100.00;98771.09;5117968;27;20040;-92
2022/07/05 01:26:02;;;;;;;7.78;1.90;;;;;;;16.71;100.00;98765.31;5105016;27;20032;-91
2022/07/05 01:28:47;;;;;;;8.18;1.50;;;;;;;17.25;100.00;98755.56;5104491;28;20051;-92
2022/07/05 01:31:27;;;;;;;7.93;1.38;;;;;;;17.46;100.00;98753.06;5101844;28;20031;-92
2022/07/05 01:33:53;;;;;;;7.40;2.15;;;;;;;17.02;100.00;98756.38;5106766;28;20054;-91
2022/07/05 01:36:23;;;;;;;7.30;1.73;;;;;;;17.28;100.00;98754.59;5099738;28;20410;-91
2022/07/05 01:38:49;;;;;;;8.85;1.80;;;;;;;16.70;100.00;98758.31;5098976;28;20114;-92
2022/07/05 01:41:20;;;;;;;7.20;1.60;;;;;;;16.72;100.00;98759.13;5102297;28;20051;-91
2022/07/05 01:43:53;;;;;;;7.35;1.90;;;;;;;17.28;100.00;98755.44;5093915;28;20134;-91
2022/07/05 01:46:23;;;;;;;8.20;1.60;;;;;;;17.35;100.00;98770.09;5101787;28;20067;-92
2022/07/05 01:48:53;;;;;;;6.97;1.42;;;;;;;17.24;100.00;98764.38;5098949;28;20040;-91
2022/07/05 01:51:27;;;;;;;6.57;1.30;;;;;;;17.80;100.00;98770.22;5100035;28;20051;-91
2022/07/05 01:53:56;;;;;;;6.75;1.60;;;;;;;17.15;100.00;98770.00;5099782;28;20039;-91
2022/07/05 01:56:24;;;;;;;7.20;1.50;;;;;;;17.12;100.00;98788.53;5098726;28;20772;-91
2022/07/05 01:58:55;;;;;;;8.00;1.80;;;;;;;16.95;100.00;98779.47;5100037;28;20031;-90
2022/07/05 02:01:43;;;;;;;8.55;1.60;;;;;;;17.05;100.00;98782.63;5098254;28;20032;-92
2022/07/05 02:04:13;;;;;;;6.60;1.45;;;;;;;17.10;100.00;98777.19;5101969;28;20131;-90
2022/07/05 02:06:41;;;;;;;8.00;1.45;;;;;;;16.99;100.00;98774.94;5100934;28;20035;-92
2022/07/05 02:09:10;;;;;;;6.43;1.40;;;;;;;17.02;100.00;98778.31;5104961;27;20036;-91
2022/07/05 02:11:36;;;;;;;7.80;1.50;;;;;;;17.37;100.00;98777.97;5098522;28;20500;-91
2022/07/05 02:14:02;;;;;;;8.02;1.50;;;;;;;16.97;100.00;98777.63;5101846;28;20050;-92
2022/07/05 02:16:28;;;;;;;8.25;1.75;;;;;;;16.87;100.00;98784.09;5098544;28;20068;-92
2022/07/05 02:18:54;;;;;;;4.43;1.00;;;;;;;17.20;100.00;98771.53;5097672;27;20035;-92
2022/07/05 02:21:20;;;;;;;7.25;1.52;;;;;;;17.24;100.00;98761.72;5102803;28;20138;-92
2022/07/05 02:23:52;;;;;;;5.65;1.55;;;;;;;17.31;100.00;98765.84;5101961;28;20034;-93
2022/07/05 02:26:17;;;;;;;6.78;1.33;;;;;;;16.80;100.00;98762.38;5100554;28;20165;-91
2022/07/05 02:28:46;;;;;;;6.15;1.20;;;;;;;16.69;100.00;98775.03;5100950;28;20126;-91
2022/07/05 02:31:12;;;;;;;7.10;1.42;;;;;;;17.25;100.00;98775.78;5097835;28;20393;-91
2022/07/05 02:33:37;;;;;;;7.55;1.60;;;;;;;16.88;100.00;98785.78;5104830;27;20024;-90
2022/07/05 02:36:13;;;;;;;8.30;1.40;;;;;;;17.05;100.00;98793.16;5105566;28;20059;-92
2022/07/05 02:38:40;;;;;;;5.85;1.30;;;;;;;16.76;100.00;98788.84;5103216;28;20028;-91
2022/07/05 02:41:07;;;;;;;7.47;1.75;;;;;;;16.69;100.00;98786.44;5117811;27;20039;-91
2022/07/05 02:43:33;;;;;;;7.47;1.70;;;;;;;16.93;100.00;98783.91;5117832;27;20026;-91
2022/07/05 02:46:03;;;;;;;6.75;1.50;;;;;;;16.61;100.00;98782.34;5101753;28;20027;-92
2022/07/05 02:48:29;;;;;;;8.07;1.70;;;;;;;16.76;100.00;98776.56;5098124;28;20111;-90
2022/07/05 02:50:55;;;;;;;7.60;1.40;;;;;;;16.38;100.00;98779.56;5101774;28;20119;-91
2022/07/05 02:53:20;;;;;;;10.82;1.70;;;;;;;16.85;100.00;98781.53;5122700;28;20039;-91
2022/07/05 02:55:48;;;;;;;9.25;1.80;;;;;;;16.77;100.00;98775.66;5101164;28;20032;-91
2022/07/05 02:58:29;;;;;;;7.43;1.52;;;;;;;16.75;100.00;98776.59;5101379;28;20053;-91
2022/07/05 03:00:54;;;;;;;9.63;1.60;;;;;;;16.85;100.00;98768.34;5104950;28;20087;-91
2022/07/05 03:03:23;;;;;;;6.75;1.42;;;;;;;16.86;100.00;98780.59;5103516;28;20573;-91
2022/07/05 03:06:03;;;;;;;6.55;1.45;;;;;;;16.29;100.00;98771.94;5096447;28;20062;-91
2022/07/05 03:08:34;;;;;;;6.75;1.20;;;;;;;16.55;100.00;98767.63;5098895;28;20032;-91
2022/07/05 03:11:05;;;;;;;8.75;1.40;;;;;;;16.79;100.00;98788.75;5105463;28;20038;-91
2022/07/05 03:13:36;;;;;;;5.63;1.30;;;;;;;16.57;100.00;98778.94;5100520;28;20032;-92
2022/07/05 03:16:02;;;;;;;7.60;1.50;;;;;;;16.60;100.00;98783.25;5097475;28;20024;-92
2022/07/05 03:18:27;;;;;;;11.52;1.88;;;;;;;16.51;100.00;98784.41;5100420;28;20020;-92
2022/07/05 03:20:53;;;;;;;6.85;1.50;;;;;;;17.16;100.00;98798.03;5101712;28;20023;-92
2022/07/05 03:23:19;;;;;;;9.25;1.60;;;;;;;17.17;100.00;98800.63;5096304;28;20067;-92
2022/07/05 03:25:44;;;;;;;7.38;1.55;;;;;;;17.48;100.00;98796.03;5100043;28;20019;-92
2022/07/05 03:28:10;;;;;;;8.40;1.30;;;;;;;17.06;100.00;98803.66;5102332;28;20043;-91
2022/07/05 03:30:43;;;;;;;10.02;1.88;;;;;;;17.23;100.00;98787.25;5097533;28;20066;-91
2022/07/05 03:33:18;;;;;;;8.25;1.60;;;;;;;17.51;100.00;98803.84;5105492;28;20032;-92
2022/07/05 03:36:29;;;;;;;9.77;1.58;;;;;;;17.67;100.00;98802.34;5097531;28;20034;-91
2022/07/05 03:39:00;;;;;;;8.43;1.30;;;;;;;17.85;100.00;98800.78;5089277;28;20059;-91
2022/07/05 03:41:28;;;;;;;6.13;1.50;;;;;;;17.09;100.00;98793.91;5098066;28;20063;-91
2022/07/05 03:47:22;;;;;;;8.70;1.58;;;;;;;17.48;100.00;98794.28;5104259;28;20039;-90
2022/07/05 03:49:58;;;;;;;8.07;1.70;;;;;;;17.31;100.00;98796.66;5105123;28;20030;-91
2022/07/05 03:52:32;;;;;;;12.48;2.20;;;;;;;16.87;100.00;98799.91;5104251;28;20086;-91
2022/07/05 03:54:58;;;;;;;12.65;2.03;;;;;;;16.95;100.00;98803.16;5102206;28;20931;-91
2022/07/05 03:57:29;;;;;;;9.50;1.90;;;;;;;17.63;100.00;98797.25;5102701;28;20118;-91
2022/07/05 03:59:57;;;;;;;10.20;1.98;;;;;;;17.36;100.00;98806.09;5104280;28;20034;-91
2022/07/05 04:05:39;;;;;;;6.93;1.70;;;;;;;17.10;100.00;98803.53;5095413;28;20036;-92
2022/07/05 04:08:05;;;;;;;8.48;1.60;;;;;;;16.84;100.00;98806.13;5100788;27;20035;-92
2022/07/05 04:10:56;;;;;;;7.40;1.60;;;;;;;16.96;100.00;98796.13;5099599;28;20031;-91
2022/07/05 04:13:52;;;;;;;9.48;1.70;;;;;;;17.43;100.00;98806.75;5096599;27;20032;-91
2022/07/05 04:17:10;;;;;;;7.78;1.70;;;;;;;17.50;100.00;98807.38;5095379;28;20039;-92
2022/07/05 04:57:02;;;;;;;10.35;1.75;;;;;;;17.93;100.00;98837.47;4997323;28;20123;-93
2022/07/05 04:59:28;;;;;;;10.15;1.80;;;;;;;18.12;100.00;98837.63;5016806;28;20137;-91
2022/07/05 05:01:53;;;;;;;9.38;1.60;;;;;;;18.34;100.00;98840.28;5061810;28;20049;-92
2022/07/05 05:04:28;;;;;;;7.60;1.60;;;;;;;18.21;100.00;98831.13;5063624;28;20025;-92
2022/07/05 05:06:54;;;;;;;10.05;1.90;;;;;;;17.38;100.00;98841.19;5076953;28;20104;-91
2022/07/05 05:09:22;;;;;;;8.60;1.45;;;;;;;17.98;100.00;98845.22;5064420;28;20051;-92
2022/07/05 05:11:54;;;;;;;7.32;1.83;;;;;;;17.95;100.00;98840.91;5066826;28;20032;-92
2022/07/05 05:14:20;;;;;;;16.98;2.00;;;;;;;17.71;100.00;98847.94;5060006;28;20044;-92
2022/07/05 05:16:46;;;;;;;9.05;1.77;;;;;;;18.22;100.00;98867.19;5060281;28;20021;-92
2022/07/05 05:19:12;;;;;;;8.80;1.70;;;;;;;18.47;100.00;98859.16;5063687;28;20036;-91
2022/07/05 05:21:37;;;;;;;11.50;2.30;;;;;;;18.42;100.00;98858.47;5061618;28;20037;-92
2022/07/05 05:24:03;;;;;;;8.75;1.52;;;;;;;17.49;100.00;98861.88;5060008;28;20418;-92
2022/07/05 05:26:32;;;;;;;9.27;1.77;;;;;;;17.57;100.00;98858.97;5062709;28;21547;-92
2022/07/05 05:28:58;;;;;;;9.35;1.98;;;;;;;17.74;100.00;98861.00;5061560;28;20029;-92
2022/07/05 05:31:26;;;;;;;9.70;2.03;;;;;;;17.80;100.00;98867.81;5059195;28;20041;-91
2022/07/05 05:33:54;;;;;;;5.72;1.60;;;;;;;18.33;100.00;98870.25;5055417;28;20066;-91
2022/07/05 05:36:52;;;;;;;6.47;1.75;;;;;;;18.24;100.00;98875.88;5058683;28;20024;-90
2022/07/05 05:39:40;;;;;;;9.35;1.92;;;;;;;18.22;100.00;98883.88;5063791;28;20047;-91
2022/07/05 05:42:06;;;;;;;6.93;1.77;;;;;;;18.00;100.00;98878.53;5057220;28;20541;-91
2022/07/05 05:44:32;;;;;;;6.78;1.60;;;;;;;18.20;100.00;98882.19;5058658;28;20048;-92
2022/07/05 05:47:01;;;;;;;10.63;1.70;;;;;;;17.49;100.00;98880.34;5074362;28;20032;-92
2022/07/05 05:49:29;;;;;;;12.27;2.03;;;;;;;18.80;100.00;98894.84;5060571;28;20055;-92
2022/07/05 05:51:57;;;;;;;7.90;1.83;;;;;;;18.57;100.00;98894.81;5058572;28;20052;-91
2022/07/05 05:54:33;;;;;;;5.55;1.65;;;;;;;18.15;100.00;98892.06;5067601;28;20025;-92
2022/07/05 05:56:59;;;;;;;10.90;2.10;;;;;;;18.16;100.00;98899.94;5102264;28;20137;-92
2022/07/05 05:59:24;;;;;;;10.50;1.95;;;;;;;18.57;100.00;98902.75;5101251;27;20392;-91
2022/07/05 06:01:52;;;;;;;10.18;1.98;;;;;;;17.97;100.00;98897.13;5097434;28;20649;-91
2022/07/05 06:04:18;;;;;;;7.60;2.03;;;;;;;18.76;100.00;98912.56;5098616;28;20028;-91
2022/07/05 06:06:44;;;;;;;8.32;1.77;;;;;;;18.06;100.00;98922.31;5095957;28;20035;-91
2022/07/05 06:09:09;;;;;;;10.00;1.98;;;;;;;18.52;100.00;98914.41;5096641;28;20023;-90
2022/07/05 06:11:35;;;;;;;8.60;1.90;;;;;;;18.95;100.00;98910.09;5098167;28;20019;-89
2022/07/05 06:14:00;;;;;;;7.75;1.58;;;;;;;18.72;100.00;98905.72;5098532;28;20598;-89
2022/07/05 06:16:26;;;;;;;10.30;1.88;;;;;;;18.28;100.00;98903.03;5091537;28;20042;-89
2022/07/05 06:18:52;;;;;;;7.43;1.38;;;;;;;19.20;100.00;98914.38;5098370;27;20108;-89
2022/07/05 06:21:17;;;;;;;8.85;1.50;;;;;;;18.21;100.00;98915.59;5094138;28;20023;-90
2022/07/05 06:23:43;;;;;;;8.00;1.45;;;;;;;17.69;100.00;98906.03;5103770;28;20380;-91
2022/07/05 06:26:08;;;;;;;8.88;1.50;;;;;;;17.65;100.00;98896.50;5102533;28;20399;-90
2022/07/05 06:28:34;;;;;;;6.93;1.33;;;;;;;18.39;100.00;98899.06;5104720;28;20501;-93
2022/07/05 06:31:01;;;;;;;11.68;1.67;;;;;;;18.17;100.00;98898.16;5104120;28;20452;-94
2022/07/05 06:33:29;;;;;;;9.52;1.60;;;;;;;17.64;100.00;98889.50;5104526;28;20031;-92
2022/07/05 06:35:57;;;;;;;9.52;1.42;;;;;;;17.57;100.00;98893.25;5101175;28;20114;-93
2022/07/05 06:38:23;;;;;;;9.25;1.65;;;;;;;18.46;100.00;98888.25;5103129;28;20108;-93
2022/07/05 06:40:49;;;;;;;8.55;1.50;;;;;;;17.49;100.00;98908.50;5102709;28;20453;-93
2022/07/05 06:43:23;;;;;;;7.70;1.42;;;;;;;17.56;100.00;98908.25;5095486;28;20056;-94
2022/07/05 06:45:49;;;;;;;6.22;1.40;;;;;;;18.45;100.00;98907.66;5101265;28;20047;-94
2022/07/05 06:48:14;;;;;;;7.53;1.65;;;;;;;18.54;100.00;98912.59;5098039;28;20717;-90
2022/07/05 06:50:42;;;;;;;7.80;1.55;;;;;;;18.19;100.00;98913.03;5099277;28;20713;-91
2022/07/05 06:53:20;;;;;;;9.63;1.70;;;;;;;19.23;100.00;98919.53;5099713;28;20056;-91
2022/07/05 06:55:51;;;;;;;7.10;1.60;;;;;;;19.64;100.00;98916.91;5097447;28;20046;-92
2022/07/05 06:58:35;;;;;;;;;;;;;;;;;;;;;
2022/07/05 07:01:39;;;;;;;7.45;1.50;;;;;;;19.38;100.00;98926.81;5094624;28;20039;-91
2022/07/05 07:04:05;;;;;;;12.70;1.77;;;;;;;18.39;100.00;98922.81;5045009;28;20032;-92
2022/07/05 07:06:32;;;;;;;9.38;1.52;;;;;;;19.12;100.00;98934.97;5043687;28;20094;-92
2022/07/05 07:11:42;;;;;;;11.20;1.88;;;;;;;18.92;100.00;98942.78;5041443;28;20048;-91
2022/07/05 07:14:07;;;;;;;10.98;1.83;;;;;;;19.05;100.00;98945.81;5031870;28;20041;-91
2022/07/05 07:16:35;;;;;;;8.95;1.38;;;;;;;19.21;100.00;98945.19;5035569;28;20049;-92
2022/07/05 07:19:01;;;;;;;10.90;1.90;;;;;;;19.88;100.00;98938.81;5036838;28;20560;-92
2022/07/05 07:21:26;;;;;;;14.13;2.40;;;;;;;19.68;100.00;98942.31;5035047;28;20066;-92
2022/07/05 07:23:52;;;;;;;17.92;2.65;;;;;;;19.35;100.00;98949.91;5032223;28;20028;-92
2022/07/05 07:26:18;;;;;;;8.20;1.88;;;;;;;18.71;100.00;98952.41;5030117;28;20950;-92
2022/07/05 07:28:47;;;;;;;7.45;1.50;;;;;;;18.77;100.00;98960.09;5049436;28;20039;-92
2022/07/05 07:31:12;;;;;;;9.20;1.35;;;;;;;19.44;100.00;98960.94;5032457;28;20529;-91
2022/07/05 07:33:38;;;;;;;10.38;1.65;;;;;;;18.83;100.00;98959.00;5032084;28;20025;-92
2022/07/05 07:36:05;;;;;;;9.80;1.70;;;;;;;19.43;100.00;98950.44;5030269;28;20107;-96
2022/07/05 07:38:32;;;;;;;9.05;1.50;;;;;;;18.99;100.00;98969.84;5081667;28;20463;-93
2022/07/05 07:41:02;;;;;;;12.85;1.80;;;;;;;19.60;100.00;98974.38;5103703;28;20174;-96
2022/07/05 07:43:59;;;;;;;12.02;1.77;;;;;;;20.89;100.00;98966.00;5101981;28;20032;-95
2022/07/05 07:46:25;;;;;;;7.72;1.80;;;;;;;20.60;100.00;98968.25;5102244;28;20059;-95
2022/07/05 07:48:50;;;;;;;10.70;1.77;;;;;;;20.35;100.00;98972.03;5105862;28;20357;-94
2022/07/05 07:51:16;;;;;;;8.25;1.50;;;;;;;19.32;100.00;98987.03;5106878;28;20111;-96
2022/07/05 07:53:43;;;;;;;9.25;1.70;;;;;;;20.28;100.00;98982.03;5102861;28;20032;-93
2022/07/05 07:56:10;;;;;;;7.57;1.40;;;;;;;19.74;100.00;98976.41;5106010;28;20036;-93
2022/07/05 07:58:36;;;;;;;9.38;1.77;;;;;;;19.33;100.00;98981.69;5109799;28;20512;-91
2022/07/05 08:01:02;;;;;;;7.70;1.23;;;;;;;19.32;100.00;98990.53;5104108;27;20028;-92
2022/07/05 08:03:27;;;;;;;9.57;1.40;;;;;;;20.30;100.00;98989.91;5097959;28;20069;-93
2022/07/05 08:05:53;;;;;;;8.73;1.60;;;;;;;19.79;100.00;98986.78;5099541;28;20076;-92
2022/07/05 08:08:18;;;;;;;9.48;1.90;;;;;;;20.54;100.00;98992.34;5100035;28;20815;-93
2022/07/05 08:10:44;;;;;;;10.73;1.90;;;;;;;20.68;100.00;98989.09;5103345;28;20028;-91
2022/07/05 08:13:09;;;;;;;12.52;1.77;;;;;;;20.87;100.00;98997.91;5106173;28;20077;-91
2022/07/05 08:15:35;;;;;;;12.85;1.50;;;;;;;20.42;100.00;98983.19;5099535;28;20100;-92
2022/07/05 08:23:28;;;;;;;15.00;2.15;;;;;;;20.61;100.00;98991.13;5103023;28;20795;-93
2022/07/05 08:25:58;;;;;;;10.32;1.80;;;;;;;19.60;100.00;98982.31;5103173;28;20023;-92
2022/07/05 08:28:25;;;;;;;8.90;1.58;;;;;;;19.90;100.00;98996.97;5104561;28;20028;-91
2022/07/05 08:30:52;;;;;;;9.80;1.73;;;;;;;19.91;100.00;99002.19;5103600;28;20035;-92
2022/07/05 08:33:17;;;;;;;8.23;1.55;;;;;;;19.59;100.00;99004.38;5099690;28;20074;-93
2022/07/05 08:35:43;;;;;;;9.32;1.50;;;;;;;20.21;100.00;98990.31;5103927;28;20055;-92
2022/07/05 08:38:08;;;;;;;8.40;1.50;;;;;;;20.58;100.00;99004.53;5102836;28;20023;-92
2022/07/05 08:40:38;;;;;;;11.02;1.65;;;;;;;19.50;100.00;98993.34;5102512;28;20110;-92
2022/07/05 08:43:07;;;;;;;7.85;1.40;;;;;;;19.44;100.00;98995.34;5099522;28;20031;-92
2022/07/05 08:45:34;;;;;;;11.40;2.03;;;;;;;20.65;100.00;99000.66;5104325;28;20574;-93
2022/07/05 08:48:00;;;;;;;8.80;2.03;;;;;;;20.92;100.00;99003.84;5105645;28;20103;-92
2022/07/05 08:50:27;;;;;;;10.95;1.48;;;;;;;21.09;100.00;99002.19;5099886;28;20038;-92
2022/07/05 08:52:53;;;;;;;7.60;1.42;;;;;;;20.78;100.00;98999.19;5097110;28;20763;-92
2022/07/05 08:55:19;;;;;;;8.70;1.38;;;;;;;20.56;100.00;99006.41;5096470;28;20055;-91
2022/07/05 08:57:45;;;;;;;30.25;4.47;;;;;;;20.54;100.00;99011.78;5094894;28;20043;-92
2022/07/05 09:00:11;;;;;;;12.43;1.58;;;;;;;21.54;100.00;99015.94;5103580;28;20115;-93
2022/07/05 09:02:37;;;;;;;11.68;1.38;;;;;;;20.85;100.00;99006.84;5101345;27;20046;-91
2022/07/05 09:05:05;;;;;;;6.93;1.10;;;;;;;21.93;100.00;99017.50;5099742;28;20028;-92
2022/07/05 09:07:32;;;;;;;8.27;1.00;;;;;;;21.49;100.00;99018.81;5106313;27;20455;-93
2022/07/05 09:10:01;;;;;;;5.40;1.00;;;;;;;21.69;100.00;99019.63;5099236;28;20042;-92
2022/07/05 09:12:28;;;;;;;7.43;1.30;;;;;;;21.14;100.00;99021.38;5105086;28;20031;-93
2022/07/05 09:14:55;;;;;;;6.05;0.90;;;;;;;21.34;100.00;99024.88;5101305;28;20487;-91
2022/07/05 09:17:21;;;;;;;4.85;1.15;;;;;;;20.37;100.00;99016.97;5099985;28;20418;-91
2022/07/05 09:20:09;;;;;;;3.60;0.80;;;;;;;20.64;100.00;99014.88;5100646;28;20019;-92
2022/07/05 09:23:02;;;;;;;4.72;0.90;;;;;;;21.23;100.00;99017.44;5098238;28;20256;-91
2022/07/05 09:25:29;;;;;;;6.32;1.00;;;;;;;21.32;100.00;99024.91;5095811;28;20032;-92
2022/07/05 09:28:04;;;;;;;6.38;0.80;;;;;;;21.10;100.00;99025.97;5096891;28;20030;-91
2022/07/05 09:30:31;;;;;;;3.20;0.75;;;;;;;20.35;100.00;99013.53;5101602;28;20061;-93
2022/07/05 09:33:05;;;;;;;5.78;0.75;;;;;;;20.94;100.00;99024.97;5098807;28;20119;-91
2022/07/05 09:35:31;;;;;;;4.72;0.80;;;;;;;20.68;100.00;99020.91;5102838;28;20047;-95
2022/07/05 09:37:57;;;;;;;6.07;1.13;;;;;;;20.49;100.00;99029.66;5104583;28;20542;-93
2022/07/05 09:40:27;;;;;;;4.80;0.90;;;;;;;21.45;100.00;99028.69;5105159;28;20043;-91
2022/07/05 09:43:09;;;;;;;6.97;1.00;;;;;;;22.79;100.00;99038.69;5106803;27;20031;-92
2022/07/05 09:45:35;;;;;;;6.78;0.85;;;;;;;21.16;100.00;99029.28;5099900;28;20032;-90
2022/07/05 09:48:00;;;;;;;5.22;1.00;;;;;;;21.61;100.00;99028.84;5098128;28;20084;-91
2022/07/05 09:50:34;;;;;;;6.35;1.20;;;;;;;22.10;100.00;99029.91;5098498;28;20337;-91
2022/07/05 09:52:59;;;;;;;;;;;;;;;21.93;100.00;99044.91;5095894;28;20024;-90
2022/07/05 09:55:25;;;;;;;3.33;0.80;;;;;;;21.47;100.00;99034.81;5095070;28;19977;-90
2022/07/05 09:57:51;;;;;;;3.75;0.90;;;;;;;21.68;100.00;99037.31;5098382;28;20028;-90
2022/07/05 10:00:21;;;;;;;5.15;1.00;;;;;;;20.88;100.00;99033.25;5099715;28;20039;-91
2022/07/05 10:03:00;;;;;;;4.38;1.00;;;;;;;21.19;100.00;99039.72;5096938;28;20369;-89
2022/07/05 10:05:31;;;;;;;6.65;1.10;;;;;;;20.26;100.00;99030.69;5097824;28;20023;-91
2022/07/05 10:07:59;;;;;;;6.43;1.08;;;;;;;20.46;100.00;99038.63;5102277;28;20062;-91
2022/07/05 10:10:30;;;;;;;6.05;1.20;;;;;;;20.52;100.00;99036.63;5097003;28;20043;-89
2022/07/05 10:12:57;;;;;;;5.53;1.00;;;;;;;20.78;100.00;99038.13;5097739;28;20038;-90
2022/07/05 10:15:28;;;;;;;4.63;1.10;;;;;;;21.01;100.00;99041.47;5091317;28;20075;-90
2022/07/05 10:18:14;;;;;;;5.30;1.00;;;;;;;22.06;100.00;99046.94;5095476;28;20028;-91
2022/07/05 10:20:44;;;;;;;4.45;1.10;;;;;;;21.69;100.00;99032.91;5094875;28;20491;-91
2022/07/05 10:23:17;;;;;;;4.22;0.95;;;;;;;20.75;100.00;99039.09;5092672;28;20036;-90
2022/07/05 10:25:52;;;;;;;5.13;0.90;;;;;;;20.46;100.00;99033.31;5096763;28;20499;-91
2022/07/05 10:28:21;;;;;;;4.43;0.80;;;;;;;20.12;100.00;99036.59;5096548;28;20115;-90
2022/07/05 10:30:50;;;;;;;3.08;0.73;;;;;;;20.96;100.00;99041.69;5099420;28;20028;-90
2022/07/05 10:33:26;;;;;;;3.00;0.70;;;;;;;20.98;100.00;99055.72;5095436;28;20035;-89
2022/07/05 10:35:53;;;;;;;2.88;0.68;;;;;;;21.01;100.00;99054.72;5097462;28;20118;-90
2022/07/05 10:38:25;;;;;;;3.20;0.80;;;;;;;21.39;100.00;99052.88;5097632;28;22005;-91
2022/07/05 10:40:55;;;;;;;1.92;0.60;;;;;;;20.95;100.00;99047.91;5103040;28;20095;-92
2022/07/05 10:43:24;;;;;;;2.60;0.80;;;;;;;23.41;100.00;99070.72;5094237;28;20030;-92
2022/07/05 10:45:51;;;;;;;3.38;0.82;;;;;;;23.11;100.00;99054.66;5094186;28;20391;-90
2022/07/05 10:48:24;;;;;;;2.50;0.60;;;;;;;23.27;100.00;99062.66;5097847;28;20511;-90
2022/07/05 10:51:03;;;;;;;3.15;0.93;;;;;;;23.91;99.63;99051.91;5094908;28;20032;-90
2022/07/05 10:53:49;;;;;;;2.53;0.70;;;;;;;23.22;100.00;99062.06;5096801;28;20023;-91
2022/07/05 10:56:15;;;;;;;3.13;0.80;;;;;;;23.40;100.00;99062.84;5097507;28;20047;-90
2022/07/05 10:58:43;;;;;;;5.20;0.90;;;;;;;24.57;95.01;99055.06;5098902;28;20040;-90
2022/07/05 11:01:32;;;;;;;2.15;0.50;;;;;;;22.76;100.00;99050.34;5095282;28;20032;-90
2022/07/05 11:04:04;;;;;;;3.60;0.82;;;;;;;23.04;92.93;99070.09;5074350;28;20067;-90
2022/07/05 11:06:39;;;;;;;4.70;0.70;;;;;;;23.09;93.15;99069.81;5108907;28;20097;-90
2022/07/05 11:09:15;;;;;;;2.80;0.60;;;;;;;22.65;95.77;99079.31;5093434;28;20031;-90
2022/07/05 11:11:47;;;;;;;2.15;0.70;;;;;;;24.11;84.68;99077.38;5091527;28;20042;-90
2022/07/05 11:14:21;;;;;;;3.30;0.88;;;;;;;25.44;75.73;99098.53;5091182;28;20037;-90
2022/07/05 11:17:11;;;;;;;4.63;0.80;;;;;;;23.95;88.56;99083.63;5091564;28;20040;-90
2022/07/05 11:20:06;;;;;;;4.07;0.73;;;;;;;23.93;85.72;99082.00;5096748;28;20053;-90
2022/07/05 11:22:38;;;;;;;4.05;0.90;;;;;;;24.18;85.35;99074.25;5091950;28;20467;-90
2022/07/05 11:25:10;;;;;;;3.15;0.98;;;;;;;24.51;83.44;99083.81;5096728;28;20031;-90
2022/07/05 11:27:36;;;;;;;5.15;0.88;;;;;;;24.72;85.08;99086.13;5088894;28;20152;-90
2022/07/05 11:30:26;;;;;;;5.50;1.30;;;;;;;25.78;76.08;99088.31;5093279;28;20672;-90
2022/07/05 11:32:51;;;;;;;4.68;1.17;;;;;;;24.13;77.22;99084.31;5091639;28;20028;-90
2022/07/05 11:35:33;;;;;;;5.05;1.00;;;;;;;25.83;73.50;99100.41;5091586;28;20027;-90
2022/07/05 11:38:15;;;;;;;6.38;1.15;;;;;;;24.94;76.96;99098.13;5090434;28;20040;-90
2022/07/05 11:40:40;;;;;;;3.67;0.80;;;;;;;24.84;75.22;99096.03;5089769;28;20020;-91
2022/07/05 11:43:12;;;;;;;4.63;0.90;;;;;;;24.60;75.54;99101.03;5093606;28;20491;-90
2022/07/05 11:48:28;;;;;;;4.57;1.00;;;;;;;26.05;70.61;99081.13;5100634;28;20077;-91
2022/07/05 11:50:59;;;;;;;4.30;0.85;;;;;;;24.29;75.88;99089.59;5093961;28;20028;-91
2022/07/05 11:54:12;;;;;;;5.65;1.00;;;;;;;23.85;82.52;99083.28;5112880;28;20567;-90
2022/07/05 11:57:07;;;;;;;4.67;1.10;;;;;;;24.29;75.09;99089.59;5020025;28;20049;-91
2022/07/05 11:59:32;;;;;;;4.50;0.73;;;;;;;23.76;74.04;99094.47;5018582;28;20755;-90
2022/07/05 12:02:43;;;;;;;5.65;1.15;;;;;;;22.74;81.84;99096.56;5007892;28;20033;-90
2022/07/05 12:05:44;;;;;;;4.10;0.80;;;;;;;23.76;73.40;99106.91;5010312;28;20037;-91
2022/07/05 12:08:10;;;;;;;4.82;0.90;;;;;;;24.58;67.72;99110.06;5028379;28;20402;-91
2022/07/05 12:13:56;;;;;;;3.80;0.60;;;;;;;23.69;76.72;99093.09;5022913;28;20056;-90
2022/07/05 12:16:33;;;;;;;2.15;0.55;;;;;;;23.98;77.07;99091.44;5003330;28;20041;-89
2022/07/05 12:19:01;;;;;;;5.68;0.80;;;;;;;23.25;76.08;99099.16;5017004;28;20036;-89
2022/07/05 12:21:35;;;;;;;3.78;0.93;;;;;;;23.74;74.86;99104.31;5017399;28;20450;-89
2022/07/05 12:24:04;;;;;;;3.53;0.90;;;;;;;24.82;74.89;99099.75;5022019;28;20869;-89
2022/07/05 12:26:55;;;;;;;3.88;0.70;;;;;;;24.80;65.96;99107.84;5021115;28;20175;-90
2022/07/05 12:29:37;;;;;;;3.55;0.90;;;;;;;23.89;68.36;99105.28;5022699;28;20087;-90
2022/07/05 12:32:48;;;;;;;4.27;0.73;;;;;;;24.22;65.87;99108.69;5093633;28;20511;-90
2022/07/05 12:36:07;;;;;;;3.28;0.90;;;;;;;23.00;71.62;99114.59;5076992;28;20679;-90
2022/07/05 12:38:37;;;;;;;5.50;1.10;;;;;;;23.06;70.09;99110.78;5077860;28;20064;-91
2022/07/05 12:41:09;;;;;;;5.82;1.10;;;;;;;23.80;65.35;99122.63;5065718;28;20082;-90
2022/07/05 12:44:53;;;;;;;5.75;1.08;;;;;;;26.16;57.80;99133.00;5059328;28;20031;-90
2022/07/05 12:47:23;;;;;;;4.82;0.80;;;;;;;25.20;58.48;99124.00;5081154;28;20032;-90
2022/07/05 12:49:55;;;;;;;4.53;0.98;;;;;;;24.97;64.22;99108.59;5062805;28;20745;-91